createdAt,value
2023-02-03T00:00:56.994Z,6.52
2023-02-03T00:03:29.746Z,6.55
2023-02-03T00:06:03.974Z,6.53
2023-02-03T00:08:38.415Z,6.50
2023-02-03T00:11:11.555Z,6.52
2023-02-03T00:13:43.544Z,6.53
2023-02-03T00:16:16.282Z,6.53
2023-02-03T00:18:48.193Z,6.52
2023-02-03T00:21:21.115Z,6.57
2023-02-03T00:23:54.590Z,6.53
2023-02-03T00:26:29.049Z,6.52
2023-02-03T00:29:01.091Z,6.45
2023-02-03T00:31:33.936Z,6.45
2023-02-03T00:34:06.814Z,6.43
2023-02-03T00:36:41.364Z,6.40
2023-02-03T00:39:17.614Z,6.41
2023-02-03T00:41:52.328Z,6.42
2023-02-03T00:44:24.318Z,6.43
2023-02-03T00:46:57.690Z,6.44
2023-02-03T00:49:30.221Z,6.43
2023-02-03T00:52:03.054Z,6.41
2023-02-03T00:54:35.027Z,6.40
2023-02-03T00:57:08.443Z,6.42
2023-02-03T00:59:40.405Z,6.44
2023-02-03T01:02:15.034Z,6.44
2023-02-03T01:04:48.563Z,6.46
2023-02-03T01:07:21.328Z,6.42
2023-02-03T01:09:54.087Z,6.49
2023-02-03T01:12:29.862Z,6.50
2023-02-03T01:15:01.904Z,6.46
2023-02-03T01:17:35.124Z,6.47
2023-02-03T01:20:07.572Z,6.43
2023-02-03T01:22:41.519Z,6.45
2023-02-03T01:25:13.846Z,6.42
2023-02-03T01:27:46.583Z,6.43
2023-02-03T01:30:19.605Z,6.45
2023-02-03T01:32:52.701Z,6.44
2023-02-03T01:35:25.200Z,6.41
2023-02-03T01:37:59.946Z,6.44
2023-02-03T01:40:31.832Z,6.44
2023-02-03T01:43:05.616Z,6.45
2023-02-03T01:45:38.181Z,6.44
2023-02-03T01:48:10.972Z,6.40
2023-02-03T01:50:42.865Z,6.40
2023-02-03T01:53:18.694Z,6.39
2023-02-03T01:55:51.157Z,6.41
2023-02-03T01:58:28.820Z,6.40
2023-02-03T02:01:01.702Z,6.39
2023-02-03T02:03:47.548Z,6.38
2023-02-03T02:06:19.526Z,6.33
2023-02-03T02:08:54.329Z,6.34
2023-02-03T02:11:27.005Z,6.31
2023-02-03T02:14:02.728Z,6.32
2023-02-03T02:16:47.505Z,6.30
2023-02-03T02:19:54.137Z,6.29
2023-02-03T02:22:48.610Z,6.28
2023-02-03T02:25:53.071Z,6.27
2023-02-03T02:28:52.150Z,6.29
2023-02-03T02:31:48.428Z,6.30
2023-02-03T02:34:54.040Z,6.31
2023-02-03T02:37:38.543Z,6.34
2023-02-03T02:40:48.404Z,6.35
2023-02-03T02:43:31.240Z,6.36
2023-02-03T02:46:25.782Z,6.34
2023-02-03T02:49:09.685Z,6.32
2023-02-03T02:51:45.131Z,6.37
2023-02-03T02:54:23.138Z,6.28
2023-02-03T02:57:01.858Z,6.25
2023-02-03T02:59:35.567Z,6.22
2023-02-03T03:02:10.730Z,6.14
2023-02-03T03:04:48.667Z,6.15
2023-02-03T03:07:26.197Z,6.14
2023-02-03T03:10:05.819Z,6.05
2023-02-03T03:12:45.678Z,6.08
2023-02-03T03:15:31.394Z,6.01
2023-02-03T03:18:43.566Z,5.99
2023-02-03T03:21:23.960Z,6.00
2023-02-03T03:24:00.563Z,5.99
2023-02-03T03:26:35.643Z,6.02
2023-02-03T03:29:21.046Z,6.00
2023-02-03T03:31:53.525Z,5.95
2023-02-03T03:34:25.880Z,5.97
2023-02-03T03:37:24.775Z,5.95
2023-02-03T03:40:10.153Z,5.93
2023-02-03T03:42:58.722Z,5.84
2023-02-03T03:45:56.825Z,5.83
2023-02-03T03:48:50.336Z,5.80
2023-02-03T03:51:31.072Z,5.81
2023-02-03T03:54:09.004Z,5.87
2023-02-03T03:56:51.360Z,5.90
2023-02-03T03:59:26.020Z,5.92
2023-02-03T04:02:04.905Z,5.91
2023-02-03T04:04:38.939Z,6.06
2023-02-03T04:07:13.639Z,6.06
2023-02-03T04:09:45.678Z,6.02
2023-02-03T04:12:23.999Z,6.00
2023-02-03T04:14:55.867Z,5.92
2023-02-03T04:17:28.460Z,5.91
2023-02-03T04:20:00.318Z,5.92
2023-02-03T04:22:33.085Z,5.93
2023-02-03T04:25:05.719Z,5.97
2023-02-03T04:27:38.256Z,5.92
2023-02-03T04:30:11.773Z,5.94
2023-02-03T04:32:45.214Z,5.96
2023-02-03T04:35:17.525Z,6.07
2023-02-03T04:37:50.347Z,6.07
2023-02-03T04:40:22.269Z,6.19
2023-02-03T04:42:54.663Z,6.13
2023-02-03T04:45:26.583Z,6.11
2023-02-03T04:47:59.022Z,6.15
2023-02-03T04:50:31.886Z,6.16
2023-02-03T04:53:04.274Z,6.19
2023-02-03T04:55:36.544Z,6.19
2023-02-03T04:58:09.459Z,6.22
2023-02-03T05:00:41.469Z,6.26
2023-02-03T05:03:13.964Z,6.23
2023-02-03T05:05:45.923Z,6.24
2023-02-03T05:08:18.373Z,6.24
2023-02-03T05:10:50.288Z,6.24
2023-02-03T05:13:22.754Z,6.23
2023-02-03T05:15:54.681Z,6.18
2023-02-03T05:18:26.881Z,6.22
2023-02-03T05:20:59.162Z,6.24
2023-02-03T05:23:36.466Z,6.21
2023-02-03T05:26:08.989Z,6.27
2023-02-03T05:28:41.418Z,6.25
2023-02-03T05:31:13.429Z,6.24
2023-02-03T05:33:45.933Z,6.27
2023-02-03T05:36:17.826Z,6.26
2023-02-03T05:38:50.198Z,6.33
2023-02-03T05:41:40.339Z,6.30
2023-02-03T05:44:12.697Z,6.38
2023-02-03T05:46:44.605Z,6.39
2023-02-03T05:49:17.247Z,6.40
2023-02-03T05:51:51.088Z,6.39
2023-02-03T05:54:23.750Z,6.40
2023-02-03T05:56:55.912Z,6.34
2023-02-03T05:59:28.206Z,6.32
2023-02-03T06:02:00.162Z,6.40
2023-02-03T06:04:32.589Z,6.39
2023-02-03T06:07:04.616Z,6.43
2023-02-03T06:09:37.012Z,6.42
2023-02-03T06:12:08.952Z,6.44
2023-02-03T06:14:41.810Z,6.45
2023-02-03T06:17:13.674Z,6.44
2023-02-03T06:19:46.075Z,6.41
2023-02-03T06:22:18.362Z,6.43
2023-02-03T06:24:50.817Z,6.43
2023-02-03T06:27:23.171Z,6.45
2023-02-03T06:29:55.589Z,6.45
2023-02-03T06:32:27.790Z,6.44
2023-02-03T06:35:00.219Z,6.49
2023-02-03T06:37:32.446Z,6.50
2023-02-03T06:40:05.703Z,6.47
2023-02-03T06:42:37.595Z,6.48
2023-02-03T06:45:10.517Z,6.49
2023-02-03T06:47:44.263Z,6.49
2023-02-03T06:50:16.937Z,6.49
2023-02-03T06:52:50.610Z,6.53
2023-02-03T06:55:23.428Z,6.52
2023-02-03T06:57:55.558Z,6.47
2023-02-03T07:00:28.501Z,6.51
2023-02-03T07:03:02.242Z,6.44
2023-02-03T07:05:36.222Z,6.37
2023-02-03T07:08:10.647Z,6.34
2023-02-03T07:10:43.053Z,6.38
2023-02-03T07:13:14.918Z,6.38
2023-02-03T07:15:47.332Z,6.32
2023-02-03T07:18:45.856Z,6.34
2023-02-03T07:21:17.631Z,6.39
2023-02-03T07:23:50.585Z,6.40
2023-02-03T07:26:24.218Z,6.42
2023-02-03T07:28:58.587Z,6.43
2023-02-03T07:31:31.379Z,6.41
2023-02-03T07:34:04.192Z,6.36
2023-02-03T07:36:36.659Z,6.39
2023-02-03T07:39:08.583Z,6.46
2023-02-03T07:41:40.990Z,6.74
2023-02-03T07:44:12.985Z,7.07
2023-02-03T07:46:45.816Z,6.68
2023-02-03T07:49:17.781Z,6.60
2023-02-03T07:51:50.579Z,6.69
2023-02-03T07:54:22.493Z,6.68
2023-02-03T07:56:55.143Z,6.70
2023-02-03T07:59:27.024Z,6.69
2023-02-03T08:01:59.580Z,6.76
2023-02-03T08:04:31.585Z,6.71
2023-02-03T08:07:04.897Z,6.73
2023-02-03T08:09:36.776Z,6.75
2023-02-03T08:12:09.018Z,6.78
2023-02-03T08:14:40.906Z,6.76
2023-02-03T08:17:13.305Z,6.74
2023-02-03T08:19:45.658Z,6.82
2023-02-03T08:22:18.188Z,6.78
2023-02-03T08:24:50.138Z,6.91
2023-02-03T08:27:23.245Z,6.97
2023-02-03T08:29:55.095Z,6.92
2023-02-03T08:32:27.853Z,6.97
2023-02-03T08:34:59.753Z,7.02
2023-02-03T08:37:32.850Z,7.06
2023-02-03T08:40:06.640Z,7.01
2023-02-03T08:42:39.128Z,6.96
2023-02-03T08:45:11.228Z,6.97
2023-02-03T08:47:43.676Z,7.03
2023-02-03T08:50:15.699Z,7.05
2023-02-03T08:52:48.202Z,7.09
2023-02-03T08:55:20.150Z,7.07
2023-02-03T08:57:52.562Z,7.24
2023-02-03T09:00:26.959Z,7.61
2023-02-03T09:02:59.546Z,7.84
2023-02-03T09:05:32.305Z,8.98
2023-02-03T09:08:05.010Z,9.03
2023-02-03T09:10:37.415Z,8.58
2023-02-03T09:13:09.819Z,8.26
2023-02-03T09:15:41.703Z,8.04
2023-02-03T09:18:14.120Z,7.77
2023-02-03T09:20:46.022Z,7.63
2023-02-03T09:23:18.496Z,7.55
2023-02-03T09:25:50.432Z,7.53
2023-02-03T09:28:22.850Z,7.50
2023-02-03T09:30:54.944Z,7.47
2023-02-03T09:33:28.095Z,7.50
2023-02-03T09:36:00.299Z,7.51
2023-02-03T09:38:34.098Z,7.52
2023-02-03T09:41:32.118Z,7.65
2023-02-03T09:44:10.870Z,7.68
2023-02-03T09:46:48.934Z,7.55
2023-02-03T09:49:43.945Z,7.62
2023-02-03T09:52:25.315Z,7.66
2023-02-03T09:55:08.643Z,7.48
2023-02-03T09:57:48.101Z,7.52
2023-02-03T10:00:26.819Z,7.71
2023-02-03T10:03:32.378Z,7.62
2023-02-03T10:06:11.095Z,7.65
2023-02-03T10:09:07.839Z,7.73
2023-02-03T10:11:58.372Z,7.63
2023-02-03T10:14:59.185Z,7.75
2023-02-03T10:17:41.917Z,9.14
2023-02-03T10:20:35.844Z,9.41
2023-02-03T10:23:20.178Z,9.21
2023-02-03T10:25:57.309Z,10.23
2023-02-03T10:28:40.908Z,9.04
2023-02-03T10:31:23.637Z,9.11
2023-02-03T10:34:09.353Z,8.87
2023-02-03T10:36:54.156Z,8.88
2023-02-03T10:39:51.558Z,9.02
2023-02-03T10:42:24.532Z,8.96
2023-02-03T10:44:59.391Z,8.89
2023-02-03T10:47:43.437Z,8.71
2023-02-03T10:50:20.874Z,8.71
2023-02-03T10:52:53.649Z,8.62
2023-02-03T10:55:25.774Z,8.37
2023-02-03T10:57:58.940Z,8.57
2023-02-03T11:00:33.506Z,8.37
2023-02-03T11:03:31.407Z,8.76
2023-02-03T11:06:18.324Z,8.74
2023-02-03T11:08:51.584Z,9.14
2023-02-03T11:11:27.964Z,9.17
2023-02-03T11:14:03.366Z,9.78
2023-02-03T11:16:39.612Z,9.52
2023-02-03T11:19:15.179Z,9.57
2023-02-03T11:21:54.736Z,9.49
2023-02-03T11:24:41.181Z,9.39
2023-02-03T11:27:18.431Z,9.00
2023-02-03T11:30:17.005Z,9.22
2023-02-03T11:32:50.164Z,8.99
2023-02-03T11:35:28.096Z,8.84
2023-02-03T11:38:02.754Z,9.24
2023-02-03T11:40:38.363Z,9.08
2023-02-03T11:43:18.083Z,8.94
2023-02-03T11:45:53.896Z,9.63
2023-02-03T11:48:42.532Z,9.30
2023-02-03T11:51:27.525Z,8.85
2023-02-03T11:54:40.451Z,9.03
2023-02-03T11:57:30.387Z,9.02
2023-02-03T12:00:20.642Z,9.05
2023-02-03T12:03:07.291Z,8.88
2023-02-03T12:06:07.267Z,8.72
2023-02-03T12:09:07.475Z,9.00
2023-02-03T12:12:00.146Z,8.93
2023-02-03T12:15:18.073Z,9.22
2023-02-03T12:18:25.368Z,9.19
2023-02-03T12:21:37.111Z,9.49
2023-02-03T12:24:10.194Z,9.62
2023-02-03T12:27:18.973Z,9.62
2023-02-03T12:30:02.453Z,8.92
2023-02-03T12:32:49.679Z,9.03
2023-02-03T12:35:35.395Z,9.07
2023-02-03T12:38:46.885Z,8.94
2023-02-03T12:41:34.258Z,9.06
2023-02-03T12:44:23.692Z,8.99
2023-02-03T12:47:16.352Z,8.85
2023-02-03T12:50:40.774Z,8.84
2023-02-03T12:53:35.178Z,8.83
2023-02-03T12:56:13.137Z,8.75
2023-02-03T12:58:54.862Z,8.79
2023-02-03T13:01:34.703Z,9.08
2023-02-03T13:04:55.313Z,8.93
2023-02-03T13:07:48.823Z,8.93
2023-02-03T13:10:50.209Z,8.76
2023-02-03T13:16:36.916Z,8.56
2023-02-03T13:19:40.411Z,8.57
2023-02-03T13:22:15.479Z,8.68
2023-02-03T13:25:01.201Z,8.61
2023-02-03T13:31:06.514Z,8.57
2023-02-03T13:34:37.256Z,8.68
2023-02-03T13:37:55.077Z,8.68
2023-02-03T13:41:04.576Z,8.60
2023-02-03T13:43:41.392Z,8.48
2023-02-03T13:46:33.658Z,8.44
2023-02-03T13:49:09.076Z,8.44
2023-02-03T13:52:00.678Z,8.42
2023-02-03T13:54:43.970Z,8.32
2023-02-03T14:00:43.652Z,8.25
2023-02-03T14:03:36.210Z,8.28
2023-02-03T14:06:36.477Z,8.26
2023-02-03T14:09:40.298Z,8.20
2023-02-03T14:12:20.501Z,8.36
2023-02-03T14:14:53.100Z,8.37
2023-02-03T14:17:51.793Z,8.30
2023-02-03T14:20:42.582Z,8.30
2023-02-03T14:23:22.208Z,8.34
2023-02-03T14:25:59.229Z,8.21
2023-02-03T14:28:53.833Z,8.18
2023-02-03T14:31:57.267Z,8.17
2023-02-03T14:34:58.479Z,8.18
2023-02-03T14:37:33.107Z,8.19
2023-02-03T14:40:51.010Z,8.14
2023-02-03T14:43:45.166Z,8.22
2023-02-03T14:46:32.315Z,8.20
2023-02-03T14:49:31.832Z,8.24
2023-02-03T14:52:40.401Z,8.20
2023-02-03T14:55:33.065Z,8.23
2023-02-03T14:58:27.160Z,8.19
2023-02-03T15:00:59.091Z,8.18
2023-02-03T15:03:32.192Z,8.22
2023-02-03T15:06:05.520Z,8.25
2023-02-03T15:08:46.414Z,8.24
2023-02-03T15:11:34.410Z,8.22
2023-02-03T15:14:27.477Z,8.19
2023-02-03T15:17:03.298Z,8.20
2023-02-03T15:19:39.789Z,8.19
2023-02-03T15:22:40.556Z,8.24
2023-02-03T15:25:20.313Z,8.25
2023-02-03T15:27:52.624Z,8.25
2023-02-03T15:30:28.312Z,8.16
2023-02-03T15:33:07.928Z,8.20
2023-02-03T15:35:42.249Z,8.17
2023-02-03T15:38:37.260Z,8.16
2023-02-03T15:41:25.651Z,8.19
2023-02-03T15:44:05.856Z,8.21
2023-02-03T15:46:39.862Z,8.14
2023-02-03T15:49:27.951Z,8.13
2023-02-03T15:52:21.612Z,8.14
2023-02-03T15:55:09.706Z,8.16
2023-02-03T15:57:47.519Z,8.12
2023-02-03T16:00:39.020Z,8.12
2023-02-03T16:03:40.458Z,8.13
2023-02-03T16:06:25.550Z,8.16
2023-02-03T16:08:59.995Z,8.13
2023-02-03T16:11:37.463Z,8.12
2023-02-03T16:14:32.104Z,8.12
2023-02-03T16:17:06.137Z,8.12
2023-02-03T16:19:44.057Z,8.12
2023-02-03T16:22:43.522Z,8.12
2023-02-03T16:25:27.381Z,8.11
2023-02-03T16:28:35.766Z,8.15
2023-02-03T16:31:38.000Z,8.14
2023-02-03T16:34:36.853Z,8.12
2023-02-03T16:37:54.102Z,8.14
2023-02-03T16:40:44.824Z,8.16
2023-02-03T16:43:37.373Z,8.15
2023-02-03T16:46:31.051Z,8.15
2023-02-03T16:49:21.883Z,8.11
2023-02-03T16:51:54.311Z,8.18
2023-02-03T16:54:28.198Z,8.13
2023-02-03T16:57:00.923Z,8.18
2023-02-03T16:59:32.806Z,8.18
2023-02-03T17:02:05.677Z,8.17
2023-02-03T17:04:38.110Z,8.19
2023-02-03T17:07:11.551Z,8.21
2023-02-03T17:09:43.429Z,8.19
2023-02-03T17:12:16.148Z,8.22
2023-02-03T17:14:50.044Z,8.19
2023-02-03T17:17:22.845Z,8.22
2023-02-03T17:19:56.839Z,8.19
2023-02-03T17:22:31.360Z,8.19
2023-02-03T17:25:04.309Z,8.21
2023-02-03T17:27:37.412Z,8.19
2023-02-03T17:30:10.367Z,8.17
2023-02-03T17:32:43.095Z,8.23
2023-02-03T17:35:15.573Z,8.18
2023-02-03T17:37:47.417Z,8.19
2023-02-03T17:54:40.493Z,8.17
2023-02-03T17:57:13.271Z,8.10
2023-02-03T17:59:47.644Z,8.10
2023-02-03T18:02:19.527Z,8.08
2023-02-03T18:04:52.254Z,8.03
2023-02-03T18:07:24.574Z,8.01
2023-02-03T18:09:56.437Z,8.01
2023-02-03T18:12:32.003Z,7.96
2023-02-03T18:15:04.520Z,7.92
2023-02-03T18:17:36.438Z,7.89
2023-02-03T18:20:11.250Z,7.87
2023-02-03T18:22:45.323Z,7.85
2023-02-03T18:25:18.439Z,7.78
2023-02-03T18:27:52.275Z,7.82
2023-02-03T18:30:24.799Z,7.78
2023-02-03T18:32:57.914Z,7.74
2023-02-03T18:35:30.244Z,7.74
2023-02-03T18:38:03.801Z,7.75
2023-02-03T18:40:38.251Z,7.69
2023-02-03T18:43:10.924Z,7.67
2023-02-03T18:45:42.826Z,7.66
2023-02-03T18:48:16.004Z,7.61
2023-02-03T18:50:48.434Z,7.60
2023-02-03T18:53:21.504Z,7.62
2023-02-03T18:55:53.352Z,7.56
2023-02-03T18:58:26.547Z,7.56
2023-02-03T19:00:58.989Z,7.58
2023-02-03T19:03:54.484Z,7.62
2023-02-03T19:06:30.251Z,8.07
2023-02-03T19:09:05.836Z,7.66
2023-02-03T19:11:37.842Z,7.62
2023-02-03T19:14:09.816Z,7.66
2023-02-03T19:16:43.384Z,7.69
2023-02-03T19:19:15.288Z,7.68
2023-02-03T19:24:42.494Z,7.69
2023-02-03T19:27:14.777Z,7.73
2023-02-03T19:29:46.655Z,7.76
2023-02-03T19:32:19.448Z,7.78
2023-02-03T19:34:52.501Z,7.80
2023-02-03T19:37:25.254Z,7.82
2023-02-03T19:39:57.461Z,7.87
2023-02-03T19:42:29.769Z,7.85
2023-02-03T19:45:01.870Z,7.82
2023-02-03T19:47:35.031Z,7.84
2023-02-03T19:50:06.971Z,7.87
2023-02-03T19:52:42.340Z,7.87
2023-02-03T19:55:16.005Z,7.81
2023-02-03T19:57:50.204Z,7.80
2023-02-03T20:00:23.606Z,7.81
2023-02-03T20:02:55.519Z,7.82
2023-02-03T20:05:30.404Z,7.80
2023-02-03T20:08:02.491Z,7.67
2023-02-03T20:10:35.404Z,7.64
2023-02-03T20:13:31.061Z,7.62
2023-02-03T20:16:04.420Z,7.62
2023-02-03T20:18:37.129Z,7.63
2023-02-03T20:21:09.990Z,7.66
2023-02-03T20:26:32.695Z,7.64
2023-02-03T20:29:05.121Z,7.64
2023-02-03T20:31:37.565Z,7.69
2023-02-03T20:34:11.146Z,7.70
2023-02-03T20:36:43.837Z,7.71
2023-02-03T20:39:20.335Z,7.71
2023-02-03T20:41:53.165Z,7.70
2023-02-03T20:44:25.828Z,7.69
2023-02-03T20:46:57.831Z,7.68
2023-02-03T20:49:30.586Z,7.73
2023-02-03T20:52:02.744Z,7.66
2023-02-03T20:54:35.603Z,7.65
2023-02-03T20:57:14.588Z,7.62
2023-02-03T20:59:48.606Z,7.59
2023-02-03T21:02:34.362Z,7.64
2023-02-03T21:05:27.733Z,7.64
2023-02-03T21:07:59.722Z,7.62
2023-02-03T21:10:32.251Z,7.59
2023-02-03T21:13:21.323Z,7.58
2023-02-03T21:16:04.438Z,7.59
2023-02-03T21:18:53.491Z,7.55
2023-02-03T21:21:39.405Z,7.46
2023-02-03T21:24:28.679Z,7.42
2023-02-03T21:27:01.830Z,7.34
2023-02-03T21:29:37.176Z,7.29
2023-02-03T21:32:38.708Z,7.18
2023-02-03T21:35:26.385Z,7.08
2023-02-03T21:38:03.917Z,7.02
2023-02-03T21:40:36.728Z,6.91
2023-02-03T21:43:17.848Z,6.82
2023-02-03T21:45:51.404Z,6.79
2023-02-03T21:48:39.672Z,6.74
2023-02-03T21:51:18.432Z,6.75
2023-02-03T21:53:56.510Z,6.70
2023-02-03T21:56:38.625Z,6.63
2023-02-03T21:59:21.132Z,6.61
2023-02-03T22:01:54.443Z,6.53
2023-02-03T22:04:28.549Z,6.49
2023-02-03T22:07:01.257Z,6.44
2023-02-03T22:09:33.644Z,6.44
2023-02-03T22:12:07.457Z,6.38
2023-02-03T22:14:39.854Z,6.38
2023-02-03T22:17:14.261Z,6.33
2023-02-03T22:19:47.084Z,6.34
2023-02-03T22:22:19.350Z,6.30
2023-02-03T22:24:51.201Z,6.30
2023-02-03T22:27:25.831Z,6.34
2023-02-03T22:29:57.660Z,6.34
2023-02-03T22:32:30.364Z,6.32
2023-02-03T22:35:03.140Z,6.33
2023-02-03T22:37:36.401Z,6.29
2023-02-03T22:40:10.099Z,6.32
2023-02-03T22:42:42.904Z,6.30
2023-02-03T22:45:15.694Z,6.30
2023-02-03T22:47:47.823Z,6.33
2023-02-03T22:50:34.416Z,6.37
2023-02-03T22:53:09.625Z,6.39
2023-02-03T22:55:43.335Z,6.38
2023-02-03T22:58:16.026Z,6.37
2023-02-03T23:00:48.181Z,6.32
2023-02-03T23:03:21.313Z,6.33
2023-02-03T23:05:53.755Z,6.36
2023-02-03T23:08:25.609Z,6.35
2023-02-03T23:10:59.081Z,6.36
2023-02-03T23:13:31.405Z,6.32
2023-02-03T23:16:04.104Z,6.34
2023-02-03T23:18:36.487Z,6.32
2023-02-03T23:21:08.338Z,6.35
2023-02-03T23:23:41.715Z,6.33
2023-02-03T23:26:13.552Z,6.37
2023-02-03T23:28:46.373Z,6.40
2023-02-03T23:31:19.233Z,6.35
2023-02-03T23:34:10.499Z,6.36
2023-02-03T23:36:42.366Z,6.44
2023-02-03T23:39:15.057Z,6.44
2023-02-03T23:41:47.321Z,6.42
2023-02-03T23:44:19.156Z,6.37
2023-02-03T23:46:51.853Z,6.36
2023-02-03T23:49:23.846Z,6.36
2023-02-03T23:51:56.512Z,6.29
2023-02-03T23:54:28.377Z,6.32
2023-02-03T23:57:01.067Z,6.27
2023-02-03T23:59:32.912Z,6.30
